Time;durP1;ratioP1;P1;durP2;ratioP2;P2;SDS_P1;SDS_P2;PMS_P1;PMS_P2;Temp;Humidity;BMP_temperature;BMP_pressure;BME280_temperature;BME280_humidity;BME280_pressure;Samples;Min_cycle;Max_cycle;Signal;HPM_P1;HPM_P2
2023/07/30 00:01:59;;;;;;;;;;;;;;;23.45;54.53;100808.66;5054397;28;19919;-72
2023/07/30 00:04:24;;;;;;;;;;;;;;;23.45;54.41;100805.09;5048771;28;19913;-72
2023/07/30 00:06:49;;;;;;;;;;;;;;;23.44;54.16;100796.09;5051817;28;19913;-72
2023/07/30 00:09:15;;;;;;;;;;;;;;;23.45;54.38;100807.81;5051530;28;19932;-72
2023/07/30 00:11:40;;;;;;;;;;;;;;;23.45;54.39;100799.66;5048058;28;19913;-72
2023/07/30 00:14:05;;;;;;;;;;;;;;;23.44;54.33;100800.69;5069955;28;19913;-72
2023/07/30 00:16:30;;;;;;;;;;;;;;;23.44;54.23;100809.66;5048746;28;19917;-72
2023/07/30 00:18:56;;;;;;;;;;;;;;;23.43;54.10;100805.28;5050117;28;20462;-72
2023/07/30 00:21:21;;;;;;;;;;;;;;;23.43;54.21;100799.84;5050462;28;19963;-72
2023/07/30 00:23:47;;;;;;;;;;;;;;;23.43;54.13;100805.28;5050974;28;20379;-72
2023/07/30 00:26:12;;;;;;;;;;;;;;;23.43;54.16;100802.56;5051306;28;19962;-72
2023/07/30 00:28:37;;;;;;;;;;;;;;;23.43;54.03;100802.56;5051047;28;19913;-72
2023/07/30 00:31:02;;;;;;;;;;;;;;;23.43;54.02;100808.00;5051533;28;19918;-72
2023/07/30 00:33:27;;;;;;;;;;;;;;;23.42;53.93;100811.75;5049567;28;19913;-72
2023/07/30 00:35:53;;;;;;;;;;;;;;;23.41;53.97;100804.66;5051366;28;19924;-72
2023/07/30 00:38:18;;;;;;;;;;;;;;;23.41;54.04;100810.09;5047960;28;19972;-72
2023/07/30 00:40:44;;;;;;;;;;;;;;;23.41;54.13;100807.38;5052356;28;19924;-72
2023/07/30 00:43:09;;;;;;;;;;;;;;;23.41;53.95;100809.25;5062956;28;19913;-72
2023/07/30 00:45:34;;;;;;;;;;;;;;;23.40;53.84;100805.66;5049981;28;19913;-71
2023/07/30 00:47:59;;;;;;;;;;;;;;;23.40;53.90;100805.66;5086154;28;19984;-72
2023/07/30 00:50:25;;;;;;;;;;;;;;;23.39;53.73;100809.44;5049258;28;19920;-72
2023/07/30 00:52:50;;;;;;;;;;;;;;;23.39;53.75;100812.16;5080204;28;19924;-72
2023/07/30 00:55:15;;;;;;;;;;;;;;;23.40;54.02;100807.56;5051138;28;19921;-72
2023/07/30 00:57:40;;;;;;;;;;;;;;;23.38;53.92;100817.78;5051287;28;19929;-72
2023/07/30 01:00:08;;;;;;;;;;;;;;;23.37;53.67;100808.81;5048598;28;19924;-72
2023/07/30 01:02:34;;;;;;;;;;;;;;;23.36;53.57;100815.28;5084897;28;19912;-72
2023/07/30 01:05:00;;;;;;;;;;;;;;;23.37;53.79;100818.81;5046002;28;19913;-72
2023/07/30 01:07:25;;;;;;;;;;;;;;;23.35;53.58;100810.03;5050682;28;19967;-72
2023/07/30 01:09:50;;;;;;;;;;;;;;;23.35;53.55;100816.28;5047627;28;20342;-72
2023/07/30 01:12:15;;;;;;;;;;;;;;;23.35;53.62;100819.00;5050121;28;19913;-72
2023/07/30 01:14:41;;;;;;;;;;;;;;;23.35;53.52;100819.00;5051300;28;20004;-72
2023/07/30 01:17:06;;;;;;;;;;;;;;;23.33;53.38;100817.56;5050340;28;19917;-72
2023/07/30 01:19:31;;;;;;;;;;;;;;;23.33;53.71;100821.09;5051495;28;19931;-72
2023/07/30 01:21:57;;;;;;;;;;;;;;;23.32;53.49;100815.84;5035379;28;20385;-72
2023/07/30 01:24:22;;;;;;;;;;;;;;;23.32;53.45;100827.56;5048272;28;20053;-72
2023/07/30 01:26:59;;;;;;;;;;;;;;;23.32;53.70;100824.00;5049651;28;20069;-72
2023/07/30 01:29:28;;;;;;;;;;;;;;;23.31;53.39;100825.03;5085926;28;19912;-72
2023/07/30 01:31:56;;;;;;;;;;;;;;;23.31;53.46;100833.19;5031906;28;19940;-72
2023/07/30 01:34:21;;;;;;;;;;;;;;;23.29;53.41;100827.97;5083260;28;19913;-72
2023/07/30 01:36:46;;;;;;;;;;;;;;;23.28;53.39;100831.72;5046538;28;20279;-72
2023/07/30 01:39:11;;;;;;;;;;;;;;;23.28;53.56;100829.00;5082276;28;19913;-72
2023/07/30 01:41:36;;;;;;;;;;;;;;;23.27;53.17;100830.03;5053197;28;19913;-72
2023/07/30 01:44:02;;;;;;;;;;;;;;;23.27;53.34;100835.44;5085688;28;19944;-72
2023/07/30 01:46:27;;;;;;;;;;;;;;;23.27;53.29;100834.59;5087984;28;19916;-72
2023/07/30 01:48:52;;;;;;;;;;;;;;;23.26;53.20;100835.66;5054986;28;19916;-72
2023/07/30 01:51:18;;;;;;;;;;;;;;;23.26;53.32;100835.66;5052993;28;20256;-72
2023/07/30 01:53:43;;;;;;;;;;;;;;;23.24;53.35;100833.16;5053095;28;19913;-72
2023/07/30 01:56:08;;;;;;;;;;;;;;;23.24;53.19;100837.75;5053383;28;19913;-72
2023/07/30 01:58:33;;;;;;;;;;;;;;;23.23;53.49;100834.16;5055300;28;19925;-72
2023/07/30 02:00:59;;;;;;;;;;;;;;;23.23;53.42;100839.59;5052530;28;19913;-72
2023/07/30 02:03:25;;;;;;;;;;;;;;;23.22;53.39;100832.50;5054251;28;19920;-71
2023/07/30 02:05:50;;;;;;;;;;;;;;;23.20;53.18;100832.72;5050129;28;19991;-72
2023/07/30 02:08:15;;;;;;;;;;;;;;;23.20;53.33;100840.00;5052809;28;19933;-72
2023/07/30 02:10:41;;;;;;;;;;;;;;;23.18;53.15;100837.47;5086136;28;19977;-72
2023/07/30 02:13:06;;;;;;;;;;;;;;;23.16;53.38;100836.03;5051894;28;19913;-72
2023/07/30 02:15:31;;;;;;;;;;;;;;;23.17;53.31;100843.94;5054187;28;19917;-71
2023/07/30 02:17:56;;;;;;;;;;;;;;;23.16;53.34;100842.28;5052427;28;19964;-72
2023/07/30 02:20:22;;;;;;;;;;;;;;;23.15;53.41;100843.31;5087635;28;19921;-72
2023/07/30 02:22:47;;;;;;;;;;;;;;;23.15;53.55;100834.31;5053502;28;19924;-72
2023/07/30 02:25:13;;;;;;;;;;;;;;;23.13;53.41;100837.25;5054792;28;19917;-72
2023/07/30 02:27:38;;;;;;;;;;;;;;;23.13;53.28;100833.69;5050594;28;19913;-72
2023/07/30 02:30:04;;;;;;;;;;;;;;;23.12;53.51;100837.44;5055995;28;19960;-72
2023/07/30 02:32:29;;;;;;;;;;;;;;;23.12;53.33;100843.72;5049031;28;19913;-72
2023/07/30 02:34:54;;;;;;;;;;;;;;;23.12;53.42;100837.44;5051942;28;19913;-72
2023/07/30 02:37:19;;;;;;;;;;;;;;;23.11;53.41;100833.91;5051130;28;19919;-72
2023/07/30 02:39:44;;;;;;;;;;;;;;;23.10;53.45;100831.38;5051020;28;19917;-72
2023/07/30 02:42:10;;;;;;;;;;;;;;;23.10;53.26;100829.50;5055101;28;19917;-72
2023/07/30 02:44:35;;;;;;;;;;;;;;;23.10;53.50;100832.22;5052513;28;19920;-72
2023/07/30 02:47:00;;;;;;;;;;;;;;;23.09;53.27;100835.97;5054371;28;19917;-71
2023/07/30 02:49:25;;;;;;;;;;;;;;;23.09;53.28;100825.13;5085796;28;20306;-72
2023/07/30 02:51:50;;;;;;;;;;;;;;;23.09;53.26;100827.81;5065050;28;19939;-72
2023/07/30 02:54:16;;;;;;;;;;;;;;;23.08;53.22;100828.88;5051190;28;20398;-71
2023/07/30 02:56:42;;;;;;;;;;;;;;;23.07;53.30;100829.91;5053015;28;19913;-72
2023/07/30 02:59:07;;;;;;;;;;;;;;;23.07;53.33;100823.66;5067701;28;19913;-72
2023/07/30 03:01:33;;;;;;;;;;;;;;;23.08;53.39;100836.16;5050654;28;19924;-72
2023/07/30 03:03:58;;;;;;;;;;;;;;;23.06;53.32;100833.63;5054600;28;19913;-72
2023/07/30 03:06:23;;;;;;;;;;;;;;;23.07;53.25;100839.94;5047759;28;19913;-72
2023/07/30 03:08:48;;;;;;;;;;;;;;;23.06;53.36;100835.50;5054678;28;20195;-72
2023/07/30 03:11:13;;;;;;;;;;;;;;;23.05;53.36;100840.09;5050288;28;19940;-72
2023/07/30 03:13:39;;;;;;;;;;;;;;;23.05;53.36;100841.97;5053048;28;19921;-72
2023/07/30 03:16:04;;;;;;;;;;;;;;;23.04;53.27;100833.00;5052851;28;19917;-71
2023/07/30 03:18:30;;;;;;;;;;;;;;;23.05;53.20;100833.84;5051923;28;19928;-72
2023/07/30 03:21:01;;;;;;;;;;;;;;;23.04;53.18;100834.88;5051751;28;19921;-72
2023/07/30 03:23:26;;;;;;;;;;;;;;;23.03;53.36;100835.94;5050400;28;20371;-72
2023/07/30 03:25:52;;;;;;;;;;;;;;;23.04;53.27;100843.03;5053349;28;19913;-72
2023/07/30 03:28:17;;;;;;;;;;;;;;;23.02;53.20;100835.06;5049998;28;19901;-72
2023/07/30 03:30:42;;;;;;;;;;;;;;;23.02;53.16;100837.78;5054069;28;19917;-73
2023/07/30 03:33:07;;;;;;;;;;;;;;;23.02;53.08;100835.06;5048219;28;20011;-72
2023/07/30 03:35:32;;;;;;;;;;;;;;;23.02;52.99;100834.22;5051986;28;19968;-72
2023/07/30 03:37:58;;;;;;;;;;;;;;;23.01;53.01;100838.81;5054348;28;19960;-72
2023/07/30 03:40:23;;;;;;;;;;;;;;;23.01;53.13;100829.84;5050644;28;19913;-72
2023/07/30 03:42:48;;;;;;;;;;;;;;;23.00;53.23;100829.00;5053397;28;19921;-72
2023/07/30 03:45:14;;;;;;;;;;;;;;;23.00;52.98;100834.44;5051439;28;19913;-72
2023/07/30 03:47:39;;;;;;;;;;;;;;;23.00;53.36;100834.44;5083427;28;19953;-72
2023/07/30 03:50:04;;;;;;;;;;;;;;;22.99;53.14;100831.94;5050519;28;19967;-72
2023/07/30 03:52:30;;;;;;;;;;;;;;;22.99;53.19;100835.47;5052178;28;19917;-72
2023/07/30 03:54:55;;;;;;;;;;;;;;;22.99;53.04;100834.66;5048469;28;19972;-72
2023/07/30 03:57:20;;;;;;;;;;;;;;;22.98;52.96;100830.25;5051380;28;19921;-72
2023/07/30 03:59:45;;;;;;;;;;;;;;;22.98;53.23;100839.25;5079510;28;19971;-72
2023/07/30 04:02:15;;;;;;;;;;;;;;;22.98;53.23;100835.66;5048701;28;19921;-72
2023/07/30 04:04:40;;;;;;;;;;;;;;;22.97;53.02;100842.13;5054093;28;19924;-72
2023/07/30 04:07:05;;;;;;;;;;;;;;;22.95;52.85;100842.34;5034492;28;19917;-72
2023/07/30 04:09:30;;;;;;;;;;;;;;;22.97;53.17;100839.41;5051285;28;19917;-72
2023/07/30 04:11:56;;;;;;;;;;;;;;;22.95;52.92;100842.34;5052879;28;19925;-72
2023/07/30 04:14:21;;;;;;;;;;;;;;;22.95;53.23;100836.91;5048711;28;19917;-72
2023/07/30 04:16:47;;;;;;;;;;;;;;;22.94;53.25;100841.50;5049822;28;19924;-72
2023/07/30 04:19:12;;;;;;;;;;;;;;;22.94;52.87;100838.78;5050021;28;19917;-72
2023/07/30 04:21:37;;;;;;;;;;;;;;;22.93;53.06;100845.22;5047511;28;19939;-72
2023/07/30 04:24:02;;;;;;;;;;;;;;;22.93;52.90;100842.50;5048042;28;19932;-72
2023/07/30 04:26:27;;;;;;;;;;;;;;;22.93;52.99;100850.66;5046491;28;19917;-72
2023/07/30 04:28:53;;;;;;;;;;;;;;;22.92;52.82;100850.84;5047685;28;19928;-72
2023/07/30 04:31:18;;;;;;;;;;;;;;;22.92;53.06;100843.56;5050179;28;19921;-72
2023/07/30 04:33:43;;;;;;;;;;;;;;;22.92;52.91;100835.41;5047692;28;20062;-72
2023/07/30 04:36:08;;;;;;;;;;;;;;;22.91;52.88;100838.34;5047866;28;20008;-72
2023/07/30 04:38:33;;;;;;;;;;;;;;;22.92;52.95;100842.72;5050626;28;20301;-72
2023/07/30 04:40:59;;;;;;;;;;;;;;;22.90;53.13;100842.94;5048591;28;20442;-72
2023/07/30 04:43:24;;;;;;;;;;;;;;;22.90;52.95;100839.38;5048078;28;20391;-72
2023/07/30 04:45:49;;;;;;;;;;;;;;;22.91;52.98;100846.47;5050060;28;20000;-72
2023/07/30 04:48:14;;;;;;;;;;;;;;;22.89;52.99;100849.31;5049145;28;20027;-72
2023/07/30 04:50:41;;;;;;;;;;;;;;;22.90;52.99;100852.94;5049668;28;19959;-72
2023/07/30 04:53:07;;;;;;;;;;;;;;;22.90;52.98;100847.53;5049007;28;19917;-72
2023/07/30 04:55:32;;;;;;;;;;;;;;;22.89;53.08;100856.63;5045720;28;19972;-72
2023/07/30 04:57:57;;;;;;;;;;;;;;;22.89;53.02;100867.47;5051446;28;20015;-72
2023/07/30 05:00:22;;;;;;;;;;;;;;;22.89;52.95;100859.34;5049157;28;19921;-72
2023/07/30 05:02:48;;;;;;;;;;;;;;;22.88;53.09;100852.25;5031879;28;19924;-72
2023/07/30 05:05:13;;;;;;;;;;;;;;;22.87;53.15;100859.53;5050164;28;19932;-72
2023/07/30 05:07:38;;;;;;;;;;;;;;;22.88;52.89;100865.81;5047042;28;19916;-72
2023/07/30 05:10:06;;;;;;;;;;;;;;;22.87;53.07;100869.56;5049211;28;19967;-72
2023/07/30 05:12:31;;;;;;;;;;;;;;;22.87;53.31;100864.97;5051731;28;19979;-72
2023/07/30 05:14:57;;;;;;;;;;;;;;;22.87;53.02;100866.84;5051382;28;19999;-72
2023/07/30 05:17:22;;;;;;;;;;;;;;;22.86;53.16;100874.13;5052507;28;19921;-72
2023/07/30 05:19:47;;;;;;;;;;;;;;;22.86;53.26;100876.84;5053750;28;19928;-72
2023/07/30 05:22:12;;;;;;;;;;;;;;;22.86;52.89;100878.72;5078028;28;19921;-72
2023/07/30 05:24:37;;;;;;;;;;;;;;;22.87;53.06;100880.41;5050746;28;19917;-72
2023/07/30 05:27:03;;;;;;;;;;;;;;;22.86;53.05;100881.44;5051248;28;19921;-72
2023/07/30 05:29:28;;;;;;;;;;;;;;;22.86;53.08;100887.69;5053959;28;19920;-73
2023/07/30 05:31:53;;;;;;;;;;;;;;;22.16;53.47;100780.13;5050907;28;19988;-73
2023/07/30 05:34:18;;;;;;;;;;;;;;;22.85;53.17;100877.91;5052547;28;20786;-73
2023/07/30 05:36:44;;;;;;;;;;;;;;;22.85;53.66;100877.03;5053443;28;19939;-80
2023/07/30 05:39:09;;;;;;;;;;;;;;;22.85;53.42;100877.91;5082976;28;19922;-76
2023/07/30 05:41:34;;;;;;;;;;;;;;;22.86;53.86;100882.28;5051368;28;19928;-77
2023/07/30 05:43:59;;;;;;;;;;;;;;;22.87;53.60;100883.94;5052106;28;19917;-76
2023/07/30 05:46:24;;;;;;;;;;;;;;;22.88;53.51;100876.66;5054644;28;19917;-76
2023/07/30 05:48:50;;;;;;;;;;;;;;;22.89;53.46;100879.16;5050784;28;19918;-77
2023/07/30 05:51:15;;;;;;;;;;;;;;;22.89;53.52;100894.59;5051395;28;19999;-75
2023/07/30 05:53:40;;;;;;;;;;;;;;;22.89;53.64;100884.56;5053992;28;19921;-76
2023/07/30 05:56:05;;;;;;;;;;;;;;;22.90;53.77;100894.44;5080746;28;20266;-76
2023/07/30 05:58:30;;;;;;;;;;;;;;;22.91;53.68;100893.41;5052597;28;19929;-79
2023/07/30 06:00:56;;;;;;;;;;;;;;;22.91;53.82;100895.28;5051111;28;19924;-76
2023/07/30 06:03:21;;;;;;;;;;;;;;;22.92;53.83;100895.06;5085339;28;19913;-77
2023/07/30 06:05:46;;;;;;;;;;;;;;;22.92;53.92;100894.22;5055884;28;19924;-77
2023/07/30 06:08:12;;;;;;;;;;;;;;;22.93;54.05;100882.34;5054566;28;19920;-79
2023/07/30 06:10:38;;;;;;;;;;;;;;;22.93;53.94;100888.59;5054220;28;19932;-78
2023/07/30 06:13:06;;;;;;;;;;;;;;;22.93;53.89;100882.34;5052609;28;19913;-75
2023/07/30 06:15:32;;;;;;;;;;;;;;;22.93;54.08;100882.34;5084464;28;19928;-73
2023/07/30 06:17:57;;;;;;;;;;;;;;;22.93;53.92;100885.91;5050618;28;19948;-77
2023/07/30 06:20:22;;;;;;;;;;;;;;;22.93;54.21;100875.06;5086128;28;20030;-78
2023/07/30 06:22:47;;;;;;;;;;;;;;;22.93;54.19;100868.78;5050259;28;19948;-78
2023/07/30 06:25:12;;;;;;;;;;;;;;;22.93;54.24;100883.19;5084147;28;20776;-77
2023/07/30 06:27:38;;;;;;;;;;;;;;;22.93;54.18;100879.63;5086309;28;19924;-74
2023/07/30 06:30:04;;;;;;;;;;;;;;;22.93;54.04;100882.34;5052183;28;19980;-79
2023/07/30 06:32:29;;;;;;;;;;;;;;;22.93;54.30;100885.06;5055082;28;19913;-79
2023/07/30 06:34:54;;;;;;;;;;;;;;;22.93;54.28;100880.47;5036033;28;19917;-79
2023/07/30 06:37:20;;;;;;;;;;;;;;;22.92;54.18;100888.81;5052638;28;19925;-80
2023/07/30 06:39:45;;;;;;;;;;;;;;;22.92;54.41;100884.22;5051493;28;20500;-78
2023/07/30 06:42:10;;;;;;;;;;;;;;;22.93;54.46;100891.31;5055795;28;19913;-80
2023/07/30 06:44:35;;;;;;;;;;;;;;;22.93;54.34;100888.59;5050868;28;19924;-79
2023/07/30 06:47:01;;;;;;;;;;;;;;;22.93;54.35;100887.78;5055444;28;19920;-76
2023/07/30 06:49:26;;;;;;;;;;;;;;;22.93;54.63;100890.47;5050274;28;19924;-77
2023/07/30 06:51:51;;;;;;;;;;;;;;;22.94;54.48;100893.00;5084368;28;19913;-78
2023/07/30 06:54:17;;;;;;;;;;;;;;;22.93;54.31;100887.78;5054669;28;19932;-78
2023/07/30 06:56:42;;;;;;;;;;;;;;;22.93;54.50;100894.03;5043993;28;20302;-77
2023/07/30 06:59:07;;;;;;;;;;;;;;;22.92;54.51;100884.22;5046007;28;20301;-76
2023/07/30 07:01:32;;;;;;;;;;;;;;;22.94;54.67;100894.88;5048902;28;19917;-77
2023/07/30 07:03:58;;;;;;;;;;;;;;;22.94;54.47;100895.72;5050884;28;19917;-76
2023/07/30 07:06:23;;;;;;;;;;;;;;;22.94;54.77;100890.31;5051013;28;19921;-76
2023/07/30 07:08:48;;;;;;;;;;;;;;;22.97;54.74;100893.63;5085751;28;20530;-76
2023/07/30 07:11:13;;;;;;;;;;;;;;;22.95;54.75;100893.84;5048275;28;19949;-76
2023/07/30 07:13:38;;;;;;;;;;;;;;;22.95;54.72;100896.56;5050356;28;19920;-76
2023/07/30 07:16:04;;;;;;;;;;;;;;;22.95;54.62;100891.13;5050646;28;19912;-76
2023/07/30 07:18:29;;;;;;;;;;;;;;;22.95;54.66;100893.84;5081928;28;19921;-75
2023/07/30 07:20:54;;;;;;;;;;;;;;;22.95;54.68;100900.09;5081592;28;19921;-76
2023/07/30 07:23:19;;;;;;;;;;;;;;;22.95;54.59;100894.69;5049641;28;19974;-75
2023/07/30 07:25:45;;;;;;;;;;;;;;;22.95;54.83;100896.56;5048324;28;19917;-76
2023/07/30 07:28:10;;;;;;;;;;;;;;;22.96;54.60;100906.38;5048414;28;19921;-79
2023/07/30 07:30:36;;;;;;;;;;;;;;;22.95;54.75;100896.56;5076644;28;19921;-78
2023/07/30 07:33:01;;;;;;;;;;;;;;;22.97;54.88;100897.19;5050052;28;20107;-77
2023/07/30 07:35:26;;;;;;;;;;;;;;;22.95;54.64;100894.69;5048300;28;20367;-77
2023/07/30 07:37:52;;;;;;;;;;;;;;;22.94;54.62;100903.88;5047360;28;19974;-78
2023/07/30 07:40:17;;;;;;;;;;;;;;;22.95;54.84;100899.28;5047256;28;19983;-77
2023/07/30 07:42:42;;;;;;;;;;;;;;;22.94;54.73;100912.00;5049669;28;19917;-78
2023/07/30 07:45:08;;;;;;;;;;;;;;;22.95;54.71;100912.84;5077042;28;19921;-77
2023/07/30 07:47:33;;;;;;;;;;;;;;;22.94;54.56;100903.88;5043671;28;19936;-76
2023/07/30 07:49:58;;;;;;;;;;;;;;;22.95;54.68;100907.41;5047747;28;19949;-76
2023/07/30 07:52:23;;;;;;;;;;;;;;;22.95;54.77;100910.13;5049371;28;19970;-77
2023/07/30 07:54:49;;;;;;;;;;;;;;;22.94;54.68;100909.28;5047749;28;20000;-76
2023/07/30 07:57:14;;;;;;;;;;;;;;;22.95;54.77;100915.53;5080327;28;20722;-75
2023/07/30 07:59:41;;;;;;;;;;;;;;;22.95;54.85;100916.38;5049604;28;19933;-76
2023/07/30 08:02:06;;;;;;;;;;;;;;;22.95;54.71;100910.13;5052032;28;19924;-76
2023/07/30 08:04:31;;;;;;;;;;;;;;;22.97;54.63;100909.91;5048300;28;19984;-77
2023/07/30 08:06:59;;;;;;;;;;;;;;;22.98;54.71;100917.00;5049256;28;19919;-76
2023/07/30 08:09:25;;;;;;;;;;;;;;;22.97;54.52;100899.91;5049757;28;19921;-77
2023/07/30 08:11:50;;;;;;;;;;;;;;;22.98;54.89;100895.31;5043041;28;19921;-77
2023/07/30 08:14:15;;;;;;;;;;;;;;;22.98;54.72;100906.16;5044540;28;19917;-79
2023/07/30 08:16:40;;;;;;;;;;;;;;;22.97;54.78;100905.31;5046156;28;19923;-80
2023/07/30 08:19:05;;;;;;;;;;;;;;;22.97;54.69;100913.47;5079742;28;20574;-80
2023/07/30 08:21:31;;;;;;;;;;;;;;;22.99;54.63;100913.28;5048846;28;20573;-78
2023/07/30 08:23:56;;;;;;;;;;;;;;;22.99;54.87;100908.69;5081994;28;19947;-77
2023/07/30 08:26:21;;;;;;;;;;;;;;;22.99;54.77;100910.56;5046444;28;19956;-77
2023/07/30 08:28:46;;;;;;;;;;;;;;;23.00;54.89;100909.53;5051017;28;19924;-78
2023/07/30 08:31:11;;;;;;;;;;;;;;;23.00;54.76;100896.81;5049006;28;19943;-77
2023/07/30 08:33:37;;;;;;;;;;;;;;;23.01;54.71;100901.19;5049343;28;19942;-78
2023/07/30 08:36:02;;;;;;;;;;;;;;;23.02;54.75;100900.16;5048420;28;19948;-78
2023/07/30 08:38:28;;;;;;;;;;;;;;;23.02;55.02;100902.03;5046216;28;19932;-77
2023/07/30 08:40:53;;;;;;;;;;;;;;;23.02;54.97;100900.16;5046463;28;20279;-77
2023/07/30 08:43:18;;;;;;;;;;;;;;;23.03;54.76;100896.44;5047539;28;19967;-77
2023/07/30 08:45:43;;;;;;;;;;;;;;;23.04;54.98;100897.25;5046713;28;19921;-77
2023/07/30 08:48:09;;;;;;;;;;;;;;;23.05;54.77;100907.06;5048517;28;20019;-77
2023/07/30 08:50:34;;;;;;;;;;;;;;;23.05;54.99;100907.06;5052130;28;19928;-77
2023/07/30 08:53:00;;;;;;;;;;;;;;;23.05;55.00;100907.91;5055312;28;20004;-77
2023/07/30 08:55:26;;;;;;;;;;;;;;;23.05;54.97;100907.91;5068745;28;19917;-77
2023/07/30 08:57:52;;;;;;;;;;;;;;;23.06;55.10;100906.84;5052884;28;19932;-77
2023/07/30 09:00:17;;;;;;;;;;;;;;;23.06;54.95;100898.72;5054078;28;19925;-75
2023/07/30 09:02:52;;;;;;;;;;;;;;;23.06;54.91;100909.56;5087352;28;19931;-75
2023/07/30 09:05:18;;;;;;;;;;;;;;;23.06;54.83;100904.16;5035623;28;20301;-77
2023/07/30 09:07:43;;;;;;;;;;;;;;;23.06;54.84;100904.16;5053432;28;20022;-78
2023/07/30 09:10:09;;;;;;;;;;;;;;;23.05;54.83;100907.91;5055880;28;20410;-79
2023/07/30 09:12:34;;;;;;;;;;;;;;;23.05;54.95;100916.03;5051777;28;19913;-80
2023/07/30 09:15:00;;;;;;;;;;;;;;;23.05;55.17;100917.91;5054347;28;19957;-79
2023/07/30 09:17:25;;;;;;;;;;;;;;;23.05;54.85;100920.63;5087490;28;19917;-79
2023/07/30 09:19:51;;;;;;;;;;;;;;;23.05;55.06;100920.63;5088956;28;19921;-79
2023/07/30 09:22:26;;;;;;;;;;;;;;;23.03;54.85;100923.53;5057440;28;19917;-79
2023/07/30 09:24:52;;;;;;;;;;;;;;;23.03;54.78;100923.53;5089019;28;19945;-77
2023/07/30 09:27:22;;;;;;;;;;;;;;;23.02;54.92;100919.13;5054153;28;19921;-77
2023/07/30 09:29:51;;;;;;;;;;;;;;;23.01;54.68;100917.47;5068544;28;19919;-76
2023/07/30 09:32:17;;;;;;;;;;;;;;;23.02;54.74;100923.72;5070034;28;19917;-75
2023/07/30 09:34:43;;;;;;;;;;;;;;;23.01;54.69;100919.34;5055164;28;19980;-75
2023/07/30 09:37:08;;;;;;;;;;;;;;;23.01;54.61;100917.47;5086421;28;19992;-75
2023/07/30 09:39:33;;;;;;;;;;;;;;;23.01;54.92;100925.59;5055240;28;19921;-76
2023/07/30 09:41:59;;;;;;;;;;;;;;;23.02;54.74;100921.84;5086704;28;19921;-77
2023/07/30 09:44:24;;;;;;;;;;;;;;;22.65;54.85;100861.44;5087531;28;19960;-77
2023/07/30 09:46:49;;;;;;;;;;;;;;;23.04;54.98;100908.09;5053595;28;19984;-73
2023/07/30 09:49:15;;;;;;;;;;;;;;;23.03;54.80;100912.69;5056680;28;20004;-75
2023/07/30 09:51:40;;;;;;;;;;;;;;;23.05;54.77;100923.34;5056607;28;19917;-75
2023/07/30 09:54:07;;;;;;;;;;;;;;;23.04;54.71;100924.38;5055766;28;20466;-79
2023/07/30 09:56:32;;;;;;;;;;;;;;;23.07;54.78;100924.00;5055845;28;20004;-79
2023/07/30 09:58:57;;;;;;;;;;;;;;;23.07;54.94;100922.13;5053149;28;20359;-79
2023/07/30 10:01:23;;;;;;;;;;;;;;;23.07;54.84;100930.25;5051209;28;19932;-80
2023/07/30 10:03:49;;;;;;;;;;;;;;;23.08;54.93;100929.22;5050698;28;20565;-79
2023/07/30 10:06:14;;;;;;;;;;;;;;;23.09;54.95;100938.19;5049379;28;19928;-80
2023/07/30 10:08:39;;;;;;;;;;;;;;;23.09;54.68;100938.19;5080647;28;19916;-79
2023/07/30 10:11:05;;;;;;;;;;;;;;;23.08;54.69;100940.06;5053006;28;19921;-81
2023/07/30 10:13:30;;;;;;;;;;;;;;;23.08;54.79;100939.22;5047319;28;19948;-80
2023/07/30 10:15:57;;;;;;;;;;;;;;;23.09;54.74;100944.44;5049774;28;19924;-78
2023/07/30 10:18:23;;;;;;;;;;;;;;;23.10;54.92;100935.25;5055041;28;19974;-78
2023/07/30 10:20:52;;;;;;;;;;;;;;;23.11;54.71;100936.13;5051921;28;20449;-79
2023/07/30 10:23:17;;;;;;;;;;;;;;;23.11;54.68;100945.09;5051117;28;19924;-79
2023/07/30 10:25:46;;;;;;;;;;;;;;;23.11;54.74;100942.38;5052902;28;19917;-79
2023/07/30 10:28:30;;;;;;;;;;;;;;;23.12;54.60;100944.06;5051491;28;19916;-79
2023/07/30 10:30:56;;;;;;;;;;;;;;;23.11;54.58;100953.25;5051615;28;19933;-79
2023/07/30 10:33:21;;;;;;;;;;;;;;;23.11;54.69;100955.13;5051151;28;19916;-79
2023/07/30 10:35:46;;;;;;;;;;;;;;;23.11;54.57;100947.81;5050923;28;19944;-78
2023/07/30 10:38:15;;;;;;;;;;;;;;;23.13;54.60;100942.19;5051644;28;19943;-78
2023/07/30 10:40:40;;;;;;;;;;;;;;;23.13;54.75;100944.91;5080406;28;20012;-78
2023/07/30 10:43:18;;;;;;;;;;;;;;;23.14;54.55;100944.69;5050589;28;19925;-78
2023/07/30 10:45:52;;;;;;;;;;;;;;;23.15;54.68;100949.09;5053360;28;19917;-78
2023/07/30 10:48:17;;;;;;;;;;;;;;;23.17;54.48;100957.88;5051827;28;19984;-77
2023/07/30 10:50:48;;;;;;;;;;;;;;;23.17;54.60;100963.28;5082938;28;19924;-77
2023/07/30 10:53:13;;;;;;;;;;;;;;;23.18;54.32;100964.97;5050789;28;19917;-78
2023/07/30 10:55:38;;;;;;;;;;;;;;;23.18;54.35;100962.25;5053064;28;19928;-78
2023/07/30 10:58:03;;;;;;;;;;;;;;;23.19;54.36;100966.66;5051804;28;19924;-73
2023/07/30 11:00:29;;;;;;;;;;;;;;;23.20;54.30;100965.63;5052837;28;19917;-75
2023/07/30 11:02:54;;;;;;;;;;;;;;;23.20;54.45;100948.50;5033543;28;19917;-75
2023/07/30 11:05:19;;;;;;;;;;;;;;;23.20;54.39;100949.34;5051881;28;19925;-75
2023/07/30 11:07:51;;;;;;;;;;;;;;;23.22;54.18;100953.72;5048523;28;19928;-74
2023/07/30 11:10:16;;;;;;;;;;;;;;;23.24;54.05;100959.81;5033680;28;20051;-75
2023/07/30 11:12:41;;;;;;;;;;;;;;;23.24;54.00;100962.53;5045692;28;19917;-74
2023/07/30 11:15:07;;;;;;;;;;;;;;;23.24;54.09;100965.25;5049171;28;19943;-74
2023/07/30 11:17:32;;;;;;;;;;;;;;;23.20;51.99;100975.63;5051173;28;19925;-75
2023/07/30 11:19:57;;;;;;;;;;;;;;;23.18;52.12;100973.09;5048092;28;19921;-75
2023/07/30 11:22:30;;;;;;;;;;;;;;;23.20;52.39;100983.78;5049281;28;19932;-74
2023/07/30 11:24:55;;;;;;;;;;;;;;;23.20;53.34;100981.91;5049490;28;19921;-75
2023/07/30 11:27:20;;;;;;;;;;;;;;;23.22;53.60;100986.28;5075832;28;20527;-75
2023/07/30 11:29:55;;;;;;;;;;;;;;;23.21;53.67;100980.03;5078207;28;20363;-75
2023/07/30 11:32:23;;;;;;;;;;;;;;;23.22;53.60;100975.44;5044803;28;19923;-75
2023/07/30 11:34:48;;;;;;;;;;;;;;;23.23;53.80;100985.22;5046637;28;19965;-74
2023/07/30 11:37:14;;;;;;;;;;;;;;;23.23;53.88;100987.94;5048568;28;20779;-75
2023/07/30 11:39:39;;;;;;;;;;;;;;;23.25;53.04;100991.31;5051612;28;19924;-77
2023/07/30 11:42:04;;;;;;;;;;;;;;;23.24;53.12;100987.78;5048827;28;20004;-75
2023/07/30 11:44:31;;;;;;;;;;;;;;;23.18;49.72;100996.69;5086172;28;19956;-75
2023/07/30 11:46:56;;;;;;;;;;;;;;;23.10;49.07;100988.66;5050132;28;19920;-75
2023/07/30 11:49:21;;;;;;;;;;;;;;;23.04;49.06;100994.88;5073474;28;19917;-74
2023/07/30 11:51:48;;;;;;;;;;;;;;;23.00;48.62;100988.16;5038422;28;19937;-73
2023/07/30 11:54:22;;;;;;;;;;;;;;;22.95;48.87;100996.88;5045860;28;19921;-75
2023/07/30 11:56:47;;;;;;;;;;;;;;;22.99;49.42;101000.06;5028935;28;20353;-74
2023/07/30 11:59:13;;;;;;;;;;;;;;;23.01;50.27;100995.25;5085733;28;19967;-74
2023/07/30 12:01:38;;;;;;;;;;;;;;;23.02;50.45;100991.50;5047417;28;19917;-75
2023/07/30 12:04:04;;;;;;;;;;;;;;;23.04;50.28;101003.03;5081710;28;19925;-73
2023/07/30 12:06:48;;;;;;;;;;;;;;;23.08;50.81;101002.44;5048645;28;19924;-74
2023/07/30 12:09:25;;;;;;;;;;;;;;;23.11;51.69;101007.47;5045997;28;19932;-74
2023/07/30 12:11:50;;;;;;;;;;;;;;;23.14;51.69;101011.66;5060392;28;19917;-76
2023/07/30 12:14:16;;;;;;;;;;;;;;;23.16;52.07;101010.44;5046069;28;19984;-75
2023/07/30 12:16:41;;;;;;;;;;;;;;;23.17;51.85;101005.84;5076787;28;19981;-75
2023/07/30 12:19:06;;;;;;;;;;;;;;;23.18;52.12;101013.78;5046012;28;19929;-75
2023/07/30 12:21:31;;;;;;;;;;;;;;;23.20;52.08;101021.75;5047647;28;19972;-76
2023/07/30 12:23:56;;;;;;;;;;;;;;;23.20;52.27;101016.31;5076740;28;19917;-76
2023/07/30 12:26:22;;;;;;;;;;;;;;;23.22;52.29;101016.13;5047742;28;19916;-74
2023/07/30 12:28:47;;;;;;;;;;;;;;;23.24;52.47;101016.78;5030995;28;19924;-75